Government of Jersey

Home Log in

Channel Islands Terminal Aerodrome Forecasts (TAFs)

Jersey Airport - EGJJ

EGJJ 221402Z 2215/2300 04007KT 9999 FEW080TCU TEMPO 2215/2221 VRB02KT PROB40 TEMPO 2215/2300 8000 SHRA BKN080CB=

Guernsey Airport - EGJB

EGJB 221402Z 2215/2300 03008KT CAVOK PROB30 TEMPO 2215/2300 VRB03KT 8000 SHRA BKN080CB=

Alderney Airport - EGJA

EGJA 221402Z 2215/2300 05010KT CAVOK PROB30 TEMPO 2215/2300 8000 SHRA BKN080CB BECMG 2220/2222 33007KT=